createdAt,value
2018-09-05T00:02:15.466Z,11.20
2018-09-05T00:04:43.546Z,11.20
2018-09-05T00:07:11.423Z,11.20
2018-09-05T00:09:39.572Z,11.10
2018-09-05T00:12:10.622Z,11.10
2018-09-05T00:14:39.429Z,11.10
2018-09-05T00:17:07.569Z,11.10
2018-09-05T00:19:35.649Z,11.00
2018-09-05T00:22:03.695Z,11.00
2018-09-05T00:24:31.885Z,10.90
2018-09-05T00:27:00.184Z,11.00
2018-09-05T00:29:28.023Z,10.90
2018-09-05T00:31:56.160Z,10.90
2018-09-05T00:34:24.337Z,10.80
2018-09-05T00:36:52.449Z,10.80
2018-09-05T00:39:20.413Z,10.80
2018-09-05T00:41:48.411Z,10.80
2018-09-05T00:44:16.879Z,10.80
2018-09-05T00:46:44.825Z,10.80
2018-09-05T00:49:13.008Z,10.80
2018-09-05T00:51:41.115Z,10.80
2018-09-05T00:54:09.136Z,10.70
2018-09-05T00:56:37.918Z,10.60
2018-09-05T00:59:05.911Z,10.60
2018-09-05T01:01:34.246Z,10.70
2018-09-05T01:04:02.406Z,10.70
2018-09-05T01:06:30.687Z,10.70
2018-09-05T01:08:58.858Z,10.60
2018-09-05T01:11:26.899Z,10.60
2018-09-05T01:13:55.545Z,10.50
2018-09-05T01:16:24.014Z,10.50
2018-09-05T01:18:51.936Z,10.50
2018-09-05T01:21:19.855Z,10.50
2018-09-05T01:23:47.551Z,10.50
2018-09-05T01:26:15.490Z,10.40
2018-09-05T01:28:43.596Z,10.40
2018-09-05T01:31:11.679Z,10.40
2018-09-05T01:33:39.733Z,10.40
2018-09-05T01:36:13.143Z,10.30
2018-09-05T01:38:41.906Z,10.30
2018-09-05T01:41:10.489Z,10.20
2018-09-05T01:43:39.138Z,10.20
2018-09-05T01:46:07.389Z,10.20
2018-09-05T01:48:35.711Z,10.20
2018-09-05T01:51:03.881Z,10.10
2018-09-05T01:53:32.229Z,10.10
2018-09-05T01:56:00.489Z,10.10
2018-09-05T01:58:28.682Z,10.10
2018-09-05T02:00:56.758Z,10.10
2018-09-05T02:03:24.706Z,10.10
2018-09-05T02:05:52.751Z,10.10
2018-09-05T02:08:20.834Z,10.10
2018-09-05T02:10:49.099Z,10.00
2018-09-05T02:13:16.845Z,10.00
2018-09-05T02:15:44.975Z,10.00
2018-09-05T02:18:13.167Z,9.90
2018-09-05T02:20:41.433Z,9.90
2018-09-05T02:23:09.739Z,9.90
2018-09-05T02:25:37.705Z,9.90
2018-09-05T02:28:05.634Z,9.90
2018-09-05T02:30:33.833Z,9.90
2018-09-05T02:33:01.846Z,9.90
2018-09-05T02:35:29.957Z,9.80
2018-09-05T02:37:58.103Z,9.80
2018-09-05T02:40:26.340Z,9.80
2018-09-05T02:42:54.500Z,9.70
2018-09-05T02:45:22.737Z,9.80
2018-09-05T02:47:50.480Z,9.80
2018-09-05T02:50:18.606Z,9.70
2018-09-05T02:52:46.639Z,9.70
2018-09-05T02:56:22.746Z,9.60
2018-09-05T02:58:50.919Z,9.60
2018-09-05T03:01:19.561Z,9.60
2018-09-05T03:03:47.636Z,9.70
2018-09-05T03:06:15.716Z,9.80
2018-09-05T03:08:43.690Z,9.80
2018-09-05T03:11:11.887Z,9.80
2018-09-05T03:13:40.271Z,9.80
2018-09-05T03:16:08.207Z,9.80
2018-09-05T03:18:36.400Z,9.80
2018-09-05T03:21:04.422Z,9.80
2018-09-05T03:23:32.302Z,9.80
2018-09-05T03:26:00.084Z,9.80
2018-09-05T03:28:28.187Z,9.80
2018-09-05T03:30:56.471Z,9.80
2018-09-05T03:33:24.588Z,9.80
2018-09-05T03:35:52.790Z,9.80
2018-09-05T03:38:20.739Z,9.80
2018-09-05T03:40:48.866Z,9.80
2018-09-05T03:43:16.704Z,9.80
2018-09-05T03:45:44.701Z,9.80
2018-09-05T03:48:12.610Z,9.70
2018-09-05T03:50:40.488Z,9.70
2018-09-05T03:53:08.336Z,9.80
2018-09-05T03:55:36.248Z,9.80
2018-09-05T03:58:04.629Z,9.80
2018-09-05T04:00:34.426Z,9.80
2018-09-05T04:03:03.516Z,9.80
2018-09-05T04:05:31.684Z,9.80
2018-09-05T04:07:59.554Z,9.80
2018-09-05T04:10:27.696Z,9.90
2018-09-05T04:12:55.452Z,9.80
2018-09-05T04:15:23.334Z,9.80
2018-09-05T04:18:22.350Z,9.80
2018-09-05T04:20:50.619Z,9.80
2018-09-05T04:23:18.624Z,9.70
2018-09-05T04:25:46.695Z,9.70
2018-09-05T04:28:14.746Z,9.70
2018-09-05T04:30:43.208Z,9.70
2018-09-05T04:33:11.217Z,9.60
2018-09-05T04:35:39.209Z,9.60
2018-09-05T04:38:07.367Z,9.60
2018-09-05T04:40:35.409Z,9.60
2018-09-05T04:43:03.273Z,9.60
2018-09-05T04:45:31.239Z,9.60
2018-09-05T04:47:59.377Z,9.60
2018-09-05T04:50:27.413Z,9.60
2018-09-05T04:52:55.395Z,9.60
2018-09-05T04:55:23.617Z,9.60
2018-09-05T04:57:51.630Z,9.70
2018-09-05T05:00:19.761Z,9.60
2018-09-05T05:02:48.442Z,9.70
2018-09-05T05:05:16.637Z,9.70
2018-09-05T05:07:45.070Z,9.70
2018-09-05T05:10:20.304Z,9.70
2018-09-05T05:12:48.457Z,9.80
2018-09-05T05:15:16.543Z,9.80
2018-09-05T05:17:44.492Z,9.90
2018-09-05T05:20:12.449Z,9.90
2018-09-05T05:22:40.878Z,9.90
2018-09-05T05:25:08.869Z,10.00
2018-09-05T05:27:36.672Z,10.00
2018-09-05T05:30:05.197Z,10.00
2018-09-05T05:32:33.243Z,10.10
2018-09-05T05:35:01.037Z,10.10
2018-09-05T05:37:28.927Z,10.20
2018-09-05T05:39:59.749Z,10.20
2018-09-05T05:42:27.777Z,10.30
2018-09-05T05:44:55.976Z,10.40
2018-09-05T05:47:23.979Z,10.40
2018-09-05T05:49:51.938Z,10.40
2018-09-05T05:52:20.080Z,10.50
2018-09-05T05:54:48.000Z,10.50
2018-09-05T05:57:15.796Z,10.60
2018-09-05T05:59:43.649Z,10.60
2018-09-05T06:02:11.808Z,10.80
2018-09-05T06:04:39.808Z,10.80
2018-09-05T06:07:07.581Z,10.90
2018-09-05T06:09:36.540Z,11.00
2018-09-05T06:12:05.067Z,11.10
2018-09-05T06:14:33.921Z,11.10
2018-09-05T06:17:01.836Z,11.20
2018-09-05T06:19:29.932Z,11.30
2018-09-05T06:21:58.113Z,11.40
2018-09-05T06:24:26.332Z,11.60
2018-09-05T06:26:54.810Z,11.80
2018-09-05T06:29:23.224Z,11.90
2018-09-05T06:32:32.160Z,12.00
2018-09-05T06:35:00.977Z,12.30
2018-09-05T06:37:29.167Z,12.50
2018-09-05T06:39:58.136Z,12.90
2018-09-05T06:42:26.116Z,13.00
2018-09-05T06:44:54.464Z,13.30
2018-09-05T06:47:22.878Z,13.40
2018-09-05T06:49:51.103Z,13.60
2018-09-05T06:52:19.236Z,13.70
2018-09-05T06:54:47.438Z,13.80
2018-09-05T06:57:16.375Z,13.90
2018-09-05T06:59:44.503Z,14.10
2018-09-05T07:02:12.548Z,14.20
2018-09-05T07:04:41.001Z,14.50
2018-09-05T07:07:09.029Z,14.70
2018-09-05T07:09:37.860Z,14.90
2018-09-05T07:12:06.463Z,15.10
2018-09-05T07:14:34.634Z,15.30
2018-09-05T07:17:02.645Z,15.50
2018-09-05T07:19:30.733Z,15.80
2018-09-05T07:21:59.120Z,16.10
2018-09-05T07:24:27.864Z,16.40
2018-09-05T07:26:55.984Z,16.50
2018-09-05T07:29:24.464Z,16.60
2018-09-05T07:31:52.519Z,16.70
2018-09-05T07:34:20.355Z,16.90
2018-09-05T07:36:48.480Z,17.10
2018-09-05T07:39:16.434Z,17.20
2018-09-05T07:41:44.479Z,17.40
2018-09-05T07:44:12.603Z,17.60
2018-09-05T07:46:40.783Z,17.60
2018-09-05T07:49:09.637Z,17.60
2018-09-05T07:51:38.391Z,17.70
2018-09-05T07:54:06.377Z,17.90
2018-09-05T07:56:35.965Z,18.20
2018-09-05T07:59:03.990Z,18.40
2018-09-05T08:01:32.503Z,18.40
2018-09-05T08:04:00.638Z,18.50
2018-09-05T08:06:28.502Z,18.60
2018-09-05T08:08:56.464Z,18.60
2018-09-05T08:11:24.848Z,18.80
2018-09-05T08:13:54.522Z,18.80
2018-09-05T08:16:22.338Z,18.90
2018-09-05T08:18:51.649Z,19.00
2018-09-05T08:21:19.669Z,19.10
2018-09-05T08:23:48.359Z,19.20
2018-09-05T08:26:16.813Z,19.40
2018-09-05T08:28:45.629Z,19.50
2018-09-05T08:31:14.384Z,19.70
2018-09-05T08:33:43.252Z,19.90
2018-09-05T08:36:12.319Z,20.10
2018-09-05T08:38:40.265Z,20.30
2018-09-05T08:41:09.956Z,20.30
2018-09-05T08:43:39.422Z,20.30
2018-09-05T08:46:07.836Z,20.30
2018-09-05T08:48:35.798Z,20.40
2018-09-05T08:51:04.341Z,20.50
2018-09-05T08:53:32.369Z,20.60
2018-09-05T08:56:00.698Z,20.50
2018-09-05T08:58:28.721Z,20.60
2018-09-05T09:00:56.940Z,20.70
2018-09-05T09:03:25.110Z,20.70
2018-09-05T09:05:53.202Z,20.90
2018-09-05T09:08:21.257Z,21.00
2018-09-05T09:10:49.340Z,21.00
2018-09-05T09:13:17.576Z,21.10
2018-09-05T09:15:48.579Z,21.30
2018-09-05T09:18:17.182Z,21.20
2018-09-05T09:20:45.219Z,21.30
2018-09-05T09:23:13.179Z,21.60
2018-09-05T09:25:41.106Z,21.80
2018-09-05T09:28:09.345Z,21.90
2018-09-05T09:30:37.293Z,22.10
2018-09-05T09:33:05.279Z,22.30
2018-09-05T09:35:33.158Z,22.50
2018-09-05T09:38:01.127Z,22.50
2018-09-05T09:40:29.216Z,22.60
2018-09-05T09:42:56.997Z,22.70
2018-09-05T09:45:25.334Z,22.70
2018-09-05T09:47:53.339Z,22.70
2018-09-05T09:50:21.431Z,22.80
2018-09-05T09:52:51.073Z,22.70
2018-09-05T09:55:19.151Z,22.60
2018-09-05T09:57:47.006Z,22.50
2018-09-05T10:00:21.297Z,22.60
2018-09-05T10:02:54.933Z,22.70
2018-09-05T10:05:28.299Z,22.80
2018-09-05T10:08:01.891Z,23.00
2018-09-05T10:10:35.440Z,23.00
2018-09-05T10:13:09.037Z,22.90
2018-09-05T10:15:42.351Z,22.90
2018-09-05T10:18:15.715Z,22.90
2018-09-05T10:20:43.879Z,23.00
2018-09-05T10:23:11.869Z,23.20
2018-09-05T10:25:39.707Z,23.30
2018-09-05T10:28:07.825Z,23.30
2018-09-05T10:30:36.079Z,23.50
2018-09-05T10:33:04.403Z,23.40
2018-09-05T10:35:32.345Z,23.30
2018-09-05T10:38:00.322Z,23.20
2018-09-05T10:40:28.510Z,23.30
2018-09-05T10:42:56.411Z,23.20
2018-09-05T10:45:24.549Z,23.30
2018-09-05T10:47:52.292Z,23.40
2018-09-05T10:50:20.209Z,23.40
2018-09-05T10:52:48.031Z,23.30
2018-09-05T10:55:16.380Z,23.20
2018-09-05T10:57:44.661Z,23.20
2018-09-05T11:00:12.598Z,23.10
2018-09-05T11:02:40.795Z,23.10
2018-09-05T11:05:09.153Z,23.10
2018-09-05T11:07:38.398Z,23.20
2018-09-05T11:10:06.928Z,23.30
2018-09-05T11:12:35.052Z,23.40
2018-09-05T11:15:03.863Z,23.50
2018-09-05T11:17:33.043Z,23.60
2018-09-05T11:20:00.722Z,23.80
2018-09-05T11:22:28.886Z,23.90
2018-09-05T11:24:56.876Z,24.00
2018-09-05T11:27:24.821Z,23.90
2018-09-05T11:29:52.822Z,24.00
2018-09-05T11:32:21.077Z,24.10
2018-09-05T11:34:48.998Z,24.00
2018-09-05T11:37:17.555Z,24.00
2018-09-05T11:39:45.513Z,23.90
2018-09-05T11:42:13.662Z,23.90
2018-09-05T11:44:41.885Z,23.90
2018-09-05T11:47:09.754Z,23.90
2018-09-05T11:49:38.139Z,24.00
2018-09-05T11:52:05.921Z,24.10
2018-09-05T11:54:33.869Z,24.30
2018-09-05T11:57:02.518Z,24.40
2018-09-05T11:59:31.109Z,24.50
2018-09-05T12:01:59.826Z,24.20
2018-09-05T12:04:28.301Z,24.30
2018-09-05T12:06:56.564Z,24.30
2018-09-05T12:09:26.163Z,24.30
2018-09-05T12:11:54.668Z,24.40
2018-09-05T12:14:23.444Z,24.30
2018-09-05T12:16:51.498Z,24.30
2018-09-05T12:19:19.423Z,24.40
2018-09-05T12:21:47.724Z,24.50
2018-09-05T12:24:15.951Z,24.60
2018-09-05T12:26:44.229Z,24.80
2018-09-05T12:29:13.113Z,24.90
2018-09-05T12:31:42.279Z,25.00
2018-09-05T12:34:11.405Z,25.10
2018-09-05T12:36:39.210Z,25.20
2018-09-05T12:39:09.657Z,25.30
2018-09-05T12:41:37.462Z,25.50
2018-09-05T12:44:05.989Z,25.40
2018-09-05T12:46:34.946Z,25.40
2018-09-05T12:49:02.892Z,25.20
2018-09-05T12:51:31.467Z,25.00
2018-09-05T12:53:59.742Z,25.00
2018-09-05T12:56:28.146Z,25.00
2018-09-05T12:58:56.814Z,24.90
2018-09-05T13:01:26.738Z,24.90
2018-09-05T13:03:55.947Z,25.00
2018-09-05T13:06:24.423Z,25.00
2018-09-05T13:08:52.311Z,25.00
2018-09-05T13:11:20.412Z,24.90
2018-09-05T13:13:49.035Z,24.80
2018-09-05T13:16:17.437Z,24.70
2018-09-05T13:18:45.598Z,24.50
2018-09-05T13:21:14.570Z,24.40
2018-09-05T13:23:42.670Z,24.40
2018-09-05T13:26:11.065Z,24.30
2018-09-05T13:28:39.205Z,24.30
2018-09-05T13:31:07.498Z,24.20
2018-09-05T13:33:35.501Z,24.10
2018-09-05T13:36:04.359Z,24.00
2018-09-05T13:38:32.665Z,23.90
2018-09-05T13:41:00.921Z,23.80
2018-09-05T13:43:29.230Z,23.80
2018-09-05T13:45:57.144Z,23.80
2018-09-05T13:48:25.061Z,23.90
2018-09-05T13:50:54.285Z,24.00
2018-09-05T13:53:22.515Z,24.10
2018-09-05T13:55:51.571Z,24.30
2018-09-05T13:58:19.601Z,24.40
2018-09-05T14:00:47.750Z,24.50
2018-09-05T14:03:15.909Z,24.60
2018-09-05T14:05:44.171Z,24.60
2018-09-05T14:08:12.265Z,24.60
2018-09-05T14:10:41.436Z,24.50
2018-09-05T14:13:11.132Z,24.40
2018-09-05T14:15:39.330Z,24.40
2018-09-05T14:18:07.475Z,24.40
2018-09-05T14:20:36.213Z,24.40
2018-09-05T14:23:05.550Z,24.50
2018-09-05T14:25:34.330Z,24.60
2018-09-05T14:28:02.248Z,24.80
2018-09-05T14:30:31.081Z,24.80
2018-09-05T14:33:01.091Z,24.90
2018-09-05T14:35:29.468Z,24.90
2018-09-05T14:37:57.726Z,24.90
2018-09-05T14:40:25.677Z,24.80
2018-09-05T14:42:55.099Z,24.80
2018-09-05T14:45:23.219Z,24.70
2018-09-05T14:47:51.309Z,24.60
2018-09-05T14:50:20.230Z,24.60
2018-09-05T14:52:49.991Z,24.50
2018-09-05T14:55:18.443Z,24.50
2018-09-05T14:57:46.482Z,24.30
2018-09-05T15:00:15.504Z,24.20
2018-09-05T15:02:44.247Z,24.00
2018-09-05T15:05:12.450Z,23.90
2018-09-05T15:07:45.002Z,23.80
2018-09-05T15:10:13.203Z,23.70
2018-09-05T15:12:41.970Z,23.60
2018-09-05T15:15:10.633Z,23.50
2018-09-05T15:17:38.715Z,23.30
2018-09-05T15:20:07.573Z,23.20
2018-09-05T15:22:36.110Z,23.00
2018-09-05T15:25:04.169Z,22.80
2018-09-05T15:27:32.446Z,22.90
2018-09-05T15:30:00.616Z,23.00
2018-09-05T15:32:28.795Z,23.10
2018-09-05T15:34:57.565Z,23.20
2018-09-05T15:37:25.939Z,23.30
2018-09-05T15:39:54.785Z,23.30
2018-09-05T15:42:22.867Z,23.30
2018-09-05T15:44:50.875Z,23.30
2018-09-05T15:47:18.814Z,23.30
2018-09-05T15:49:46.686Z,23.30
2018-09-05T15:52:16.018Z,23.30
2018-09-05T15:54:43.846Z,23.30
2018-09-05T15:57:11.953Z,23.30
2018-09-05T15:59:39.907Z,23.30
2018-09-05T16:02:08.151Z,23.30
2018-09-05T16:04:36.302Z,23.20
2018-09-05T16:07:04.673Z,23.20
2018-09-05T16:09:32.877Z,23.10
2018-09-05T16:12:01.019Z,23.00
2018-09-05T16:14:29.872Z,22.80
2018-09-05T16:16:58.130Z,22.70
2018-09-05T16:19:26.231Z,22.60
2018-09-05T16:21:54.337Z,22.50
2018-09-05T16:24:22.456Z,22.40
2018-09-05T16:26:50.408Z,22.20
2018-09-05T16:29:18.575Z,22.20
2018-09-05T16:31:46.818Z,22.20
2018-09-05T16:34:15.024Z,22.10
2018-09-05T16:36:43.142Z,22.10
2018-09-05T16:39:11.838Z,22.10
2018-09-05T16:41:41.000Z,21.90
2018-09-05T16:44:09.939Z,21.70
2018-09-05T16:46:38.078Z,21.60
2018-09-05T16:49:06.144Z,21.40
2018-09-05T16:51:34.679Z,21.30
2018-09-05T16:54:02.812Z,21.30
2018-09-05T16:56:31.661Z,21.20
2018-09-05T16:58:59.747Z,21.00
2018-09-05T17:01:28.216Z,20.90
2018-09-05T17:03:56.830Z,20.80
2018-09-05T17:06:24.606Z,20.70
2018-09-05T17:08:52.364Z,20.50
2018-09-05T17:11:20.830Z,20.40
2018-09-05T17:13:51.163Z,20.30
2018-09-05T17:16:19.106Z,20.20
2018-09-05T17:18:47.867Z,20.10
2018-09-05T17:21:16.217Z,20.00
2018-09-05T17:23:44.183Z,19.80
2018-09-05T17:26:12.725Z,19.70
2018-09-05T17:28:40.960Z,19.50
2018-09-05T17:31:09.106Z,19.40
2018-09-05T17:33:37.217Z,19.20
2018-09-05T17:36:05.166Z,19.10
2018-09-05T17:38:34.035Z,19.00
2018-09-05T17:41:02.073Z,18.90
2018-09-05T17:43:30.106Z,18.70
2018-09-05T17:45:58.586Z,18.60
2018-09-05T17:48:27.221Z,18.50
2018-09-05T17:50:55.198Z,18.40
2018-09-05T17:53:23.625Z,18.30
2018-09-05T17:55:52.485Z,18.20
2018-09-05T17:58:20.730Z,18.10
2018-09-05T18:00:49.797Z,18.00
2018-09-05T18:03:17.938Z,17.90
2018-09-05T18:05:45.976Z,17.90
2018-09-05T18:08:14.140Z,17.70
2018-09-05T18:10:42.573Z,17.60
2018-09-05T18:13:11.558Z,17.60
2018-09-05T18:15:41.057Z,17.40
2018-09-05T18:18:10.475Z,17.30
2018-09-05T18:20:38.502Z,17.20
2018-09-05T18:23:06.914Z,17.10
2018-09-05T18:25:35.158Z,17.00
2018-09-05T18:28:03.483Z,16.90
2018-09-05T18:30:31.438Z,16.80
2018-09-05T18:33:00.156Z,16.70
2018-09-05T18:35:28.533Z,16.70
2018-09-05T18:37:56.475Z,16.60
2018-09-05T18:40:25.371Z,16.50
2018-09-05T18:42:54.111Z,16.30
2018-09-05T18:45:22.324Z,16.30
2018-09-05T18:47:50.634Z,16.20
2018-09-05T18:50:20.187Z,16.10
2018-09-05T18:52:51.963Z,16.00
2018-09-05T18:55:20.404Z,16.00
2018-09-05T18:57:48.643Z,16.00
2018-09-05T19:00:16.602Z,15.90
2018-09-05T19:02:44.936Z,15.80
2018-09-05T19:05:13.126Z,15.70
2018-09-05T19:07:41.668Z,15.60
2018-09-05T19:10:10.615Z,15.60
2018-09-05T19:12:38.917Z,15.50
2018-09-05T19:15:07.976Z,15.40
2018-09-05T19:17:36.673Z,15.40
2018-09-05T19:20:04.947Z,15.40
2018-09-05T19:22:33.924Z,15.40
2018-09-05T19:25:02.576Z,15.30
2018-09-05T19:27:31.367Z,15.30
2018-09-05T19:29:59.240Z,15.20
2018-09-05T19:32:27.454Z,15.20
2018-09-05T19:34:56.038Z,15.10
2018-09-05T19:37:24.052Z,15.10
2018-09-05T19:39:52.349Z,15.10
2018-09-05T19:42:20.561Z,15.10
2018-09-05T19:44:48.721Z,15.00
2018-09-05T19:47:17.943Z,15.00
2018-09-05T19:49:46.300Z,14.90
2018-09-05T19:52:14.292Z,14.90
2018-09-05T19:54:42.365Z,14.80
2018-09-05T19:57:10.412Z,14.70
2018-09-05T19:59:38.495Z,14.60
2018-09-05T20:02:06.771Z,14.60
2018-09-05T20:04:34.934Z,14.50
2018-09-05T20:07:03.142Z,14.50
2018-09-05T20:09:31.048Z,14.50
2018-09-05T20:11:59.440Z,14.50
2018-09-05T20:14:28.553Z,14.50
2018-09-05T20:16:56.927Z,14.40
2018-09-05T20:19:25.655Z,14.30
2018-09-05T20:21:53.694Z,14.30
2018-09-05T20:24:21.872Z,14.20
2018-09-05T20:26:49.813Z,14.10
2018-09-05T20:29:18.087Z,14.10
2018-09-05T20:31:46.441Z,14.00
2018-09-05T20:34:14.499Z,14.00
2018-09-05T20:36:42.744Z,13.90
2018-09-05T20:39:11.914Z,14.00
2018-09-05T20:41:40.085Z,13.90
2018-09-05T20:44:08.237Z,13.90
2018-09-05T20:46:37.059Z,13.90
2018-09-05T20:49:05.344Z,13.80
2018-09-05T20:51:33.563Z,13.80
2018-09-05T20:54:01.446Z,13.80
2018-09-05T20:56:29.762Z,13.80
2018-09-05T20:58:57.877Z,13.80
2018-09-05T21:01:26.122Z,13.80
2018-09-05T21:03:54.207Z,13.80
2018-09-05T21:06:22.317Z,13.80
2018-09-05T21:08:50.207Z,13.70
2018-09-05T21:11:18.197Z,13.70
2018-09-05T21:13:47.664Z,13.70
2018-09-05T21:16:16.419Z,13.70
2018-09-05T21:18:44.266Z,13.70
2018-09-05T21:21:12.207Z,13.60
2018-09-05T21:23:40.397Z,13.60
2018-09-05T21:26:08.489Z,13.70
2018-09-05T21:28:37.577Z,13.70
2018-09-05T21:31:07.497Z,13.70
2018-09-05T21:33:35.402Z,13.60
2018-09-05T21:36:03.218Z,13.60
2018-09-05T21:38:33.540Z,13.50
2018-09-05T21:41:01.661Z,13.50
2018-09-05T21:43:29.873Z,13.50
2018-09-05T21:45:57.794Z,13.40
2018-09-05T21:48:26.162Z,13.40
2018-09-05T21:50:54.511Z,13.40
2018-09-05T21:53:22.576Z,13.40
2018-09-05T21:55:50.710Z,13.40
2018-09-05T21:58:18.799Z,13.30
2018-09-05T22:00:47.616Z,13.30
2018-09-05T22:03:15.644Z,13.30
2018-09-05T22:05:43.657Z,13.30
2018-09-05T22:08:11.843Z,13.20
2018-09-05T22:10:39.889Z,13.20
2018-09-05T22:13:08.294Z,13.10
2018-09-05T22:15:45.165Z,13.10
2018-09-05T22:18:13.483Z,13.00
2018-09-05T22:20:41.371Z,13.00
2018-09-05T22:23:09.565Z,13.00
2018-09-05T22:25:37.740Z,13.00
2018-09-05T22:28:05.736Z,13.00
2018-09-05T22:30:33.936Z,13.00
2018-09-05T22:33:02.462Z,13.00
2018-09-05T22:35:30.663Z,13.00
2018-09-05T22:37:58.896Z,13.00
2018-09-05T22:40:29.589Z,13.00
2018-09-05T22:44:09.624Z,13.00
2018-09-05T22:46:48.862Z,13.00
2018-09-05T22:51:39.988Z,13.00
2018-09-05T22:54:58.662Z,12.90
2018-09-05T22:57:42.975Z,12.90
2018-09-05T23:02:26.472Z,12.90
2018-09-05T23:06:08.495Z,12.90
2018-09-05T23:08:38.002Z,12.80
2018-09-05T23:12:20.919Z,12.80
2018-09-05T23:15:01.839Z,12.80
2018-09-05T23:17:41.497Z,12.70
2018-09-05T23:21:26.583Z,12.60
2018-09-05T23:24:03.411Z,12.50
2018-09-05T23:26:31.554Z,12.50
2018-09-05T23:28:59.587Z,12.40
2018-09-05T23:31:27.621Z,12.40
2018-09-05T23:33:55.751Z,12.40
2018-09-05T23:36:24.209Z,12.40
2018-09-05T23:38:52.714Z,12.40
2018-09-05T23:41:20.910Z,12.30
2018-09-05T23:43:48.899Z,12.40
2018-09-05T23:46:16.824Z,12.30
2018-09-05T23:48:44.779Z,12.20
2018-09-05T23:51:12.686Z,12.20
2018-09-05T23:53:41.084Z,12.10
2018-09-05T23:56:09.292Z,12.10
2018-09-05T23:58:37.476Z,12.10
